Terminal Aerodrome Forecast
Issued by NWS Sioux Falls, SD

Home | Current Version | Previous Version | Graphics & Text | Print | Product List | Glossary On
Versions: 1 2 3 4 5 6 7 8 9 10 11 12 13 14 15 16 17 18
000
FTUS43 KFSD 211300 AAA
TAFHON
TAF AMD
KHON 211307Z 2113/2212 33005KT P6SM SCT030 BKN100
     FM211900 34005KT P6SM SCT035 SCT110
     FM220100 VRB04KT P6SM SCT040
     FM221000 VRB03KT 5SM BR SCT010=

USA.gov is the U.S. government's official web portal to all federal, state and local government web resources and services.